Time;durP1;ratioP1;P1;durP2;ratioP2;P2;SDS_P1;SDS_P2;PMS_P1;PMS_P2;Temp;Humidity;BMP_temperature;BMP_pressure;BME280_temperature;BME280_humidity;BME280_pressure;Samples;Min_cycle;Max_cycle;Signal;HPM_P1;HPM_P2
2021/05/27 00:00:18;;;;;;;3.80;2.22;;;10.30;99.90;;;;;;5095567;28;20289;-38
2021/05/27 00:02:46;;;;;;;2.08;1.67;;;10.30;99.90;;;;;;5095416;28;20206;-39
2021/05/27 00:05:14;;;;;;;2.95;1.75;;;10.20;99.90;;;;;;5095149;28;20301;-39
2021/05/27 00:07:42;;;;;;;1.98;1.50;;;10.30;99.90;;;;;;5095474;28;20213;-39
2021/05/27 00:10:12;;;;;;;2.70;1.70;;;10.20;99.90;;;;;;5095198;28;20685;-38
2021/05/27 00:12:39;;;;;;;4.38;1.80;;;10.30;99.90;;;;;;5095347;28;20236;-39
2021/05/27 00:15:09;;;;;;;1.60;1.15;;;10.20;99.90;;;;;;5095336;28;20213;-38
2021/05/27 00:17:37;;;;;;;1.33;1.23;;;10.30;99.90;;;;;;5094939;28;20206;-39
2021/05/27 00:20:07;;;;;;;11.35;5.13;;;10.20;99.90;;;;;;5094780;28;20700;-39
2021/05/27 00:22:35;;;;;;;1.52;1.42;;;10.30;99.90;;;;;;5095302;28;20305;-40
2021/05/27 00:25:02;;;;;;;1.90;1.63;;;10.20;99.90;;;;;;5095080;28;20249;-40
2021/05/27 00:27:39;;;;;;;19.13;13.05;;;10.20;99.90;;;;;;5094992;28;20217;-40
2021/05/27 00:30:10;;;;;;;2.88;2.08;;;10.20;99.90;;;;;;5094776;28;20316;-38
2021/05/27 00:32:37;;;;;;;2.50;1.70;;;10.30;99.90;;;;;;5095080;28;20207;-39
2021/05/27 00:35:06;;;;;;;1.45;1.35;;;10.20;99.90;;;;;;5094523;28;20788;-39
2021/05/27 00:37:33;;;;;;;1.92;1.60;;;10.20;99.90;;;;;;5095464;28;20207;-41
2021/05/27 00:40:02;;;;;;;1.67;1.58;;;10.20;99.90;;;;;;5094746;28;20248;-39
2021/05/27 00:42:30;;;;;;;2.65;2.08;;;10.20;99.90;;;;;;5094514;28;20668;-39
2021/05/27 00:44:59;;;;;;;4.53;3.40;;;10.20;99.90;;;;;;5094516;28;20242;-39
2021/05/27 00:47:28;;;;;;;1.80;1.70;;;10.20;99.90;;;;;;5094368;28;20214;-38
2021/05/27 00:49:55;;;;;;;1.42;1.33;;;10.20;99.90;;;;;;5094547;28;20314;-38
2021/05/27 00:52:23;;;;;;;1.40;1.23;;;10.20;99.90;;;;;;5094475;28;20302;-39
2021/05/27 00:54:53;;;;;;;1.45;1.27;;;10.10;99.90;;;;;;5094374;28;20214;-39
2021/05/27 00:57:34;;;;;;;1.65;1.52;;;10.10;99.90;;;;;;5094441;28;20700;-39
2021/05/27 01:00:07;;;;;;;1.48;1.38;;;10.10;99.90;;;;;;5094533;28;20286;-39
2021/05/27 01:02:35;;;;;;;5.65;1.52;;;10.10;99.90;;;;;;5094372;28;20553;-41
2021/05/27 01:05:05;;;;;;;2.03;1.80;;;10.00;99.90;;;;;;5094269;28;20231;-39
2021/05/27 01:07:32;;;;;;;2.20;1.60;;;10.00;99.90;;;;;;5093881;28;20301;-39
2021/05/27 01:10:00;;;;;;;1.73;1.55;;;10.10;99.90;;;;;;5094246;28;20322;-39
2021/05/27 01:12:28;;;;;;;1.80;1.40;;;10.00;99.90;;;;;;5093952;28;20207;-39
2021/05/27 01:17:41;;;;;;;1.20;1.10;;;9.90;99.90;;;;;;5093969;28;20238;-39
2021/05/27 01:20:11;;;;;;;2.15;1.80;;;9.90;99.90;;;;;;5093588;28;20322;-40
2021/05/27 01:22:40;;;;;;;1.20;1.10;;;9.90;99.90;;;;;;5093938;28;20203;-39
2021/05/27 01:25:09;;;;;;;3.10;2.35;;;9.80;99.90;;;;;;5093889;28;20643;-39
2021/05/27 01:27:36;;;;;;;2.00;1.42;;;9.90;99.90;;;;;;5093980;28;20657;-38
2021/05/27 01:30:07;;;;;;;1.70;1.60;;;9.90;99.90;;;;;;5093407;28;20321;-38
2021/05/27 01:32:35;;;;;;;1.63;1.52;;;9.80;99.90;;;;;;5093655;28;20639;-38
2021/05/27 01:35:04;;;;;;;1.90;1.80;;;9.80;99.90;;;;;;5093938;28;20306;-40
2021/05/27 01:37:32;;;;;;;3.40;2.63;;;9.80;99.90;;;;;;5093621;28;20211;-38
2021/05/27 01:40:01;;;;;;;1.40;1.30;;;9.80;99.90;;;;;;5093492;28;20214;-38
2021/05/27 01:42:29;;;;;;;2.08;1.67;;;9.80;99.90;;;;;;5093605;28;20242;-40
2021/05/27 01:44:56;;;;;;;2.70;1.50;;;9.80;99.90;;;;;;5093325;28;20203;-39
2021/05/27 01:47:23;;;;;;;1.50;1.40;;;9.80;99.90;;;;;;5093230;28;20203;-40
2021/05/27 01:49:51;;;;;;;2.10;1.77;;;9.80;99.90;;;;;;5092920;28;20787;-43
2021/05/27 01:52:18;;;;;;;3.17;1.70;;;9.70;99.90;;;;;;5093371;28;20298;-40
2021/05/27 01:54:46;;;;;;;2.42;1.67;;;9.70;99.90;;;;;;5093371;28;20293;-40
2021/05/27 01:57:14;;;;;;;3.47;1.52;;;9.70;99.90;;;;;;5092440;28;20237;-41
2021/05/27 01:59:41;;;;;;;1.30;1.20;;;9.70;99.90;;;;;;5093027;28;20298;-41
2021/05/27 02:02:09;;;;;;;2.90;1.60;;;9.70;99.90;;;;;;5093537;28;20302;-40
2021/05/27 02:04:36;;;;;;;1.55;1.42;;;9.70;99.90;;;;;;5093429;28;20203;-38
2021/05/27 02:07:11;;;;;;;2.35;1.48;;;9.70;99.90;;;;;;5093163;28;20210;-41
2021/05/27 02:09:38;;;;;;;3.58;1.40;;;9.70;99.90;;;;;;5093022;28;20225;-39
2021/05/27 02:12:07;;;;;;;1.95;1.63;;;9.70;99.90;;;;;;5093125;28;20252;-39
2021/05/27 02:14:35;;;;;;;1.77;1.60;;;9.70;99.90;;;;;;5093165;28;20206;-40
2021/05/27 02:17:03;;;;;;;2.40;1.50;;;9.70;99.90;;;;;;5093046;28;20228;-39
2021/05/27 02:19:30;;;;;;;2.78;1.63;;;9.70;99.90;;;;;;5092520;28;20639;-39
2021/05/27 02:21:58;;;;;;;1.33;1.23;;;9.70;99.90;;;;;;5092896;28;20297;-40
2021/05/27 02:24:26;;;;;;;2.10;1.65;;;9.70;99.90;;;;;;5092820;28;20234;-39
2021/05/27 02:26:54;;;;;;;1.70;1.60;;;9.70;99.90;;;;;;5092381;28;20293;-39
2021/05/27 02:29:21;;;;;;;2.05;1.60;;;9.70;99.90;;;;;;5092694;28;20230;-38
2021/05/27 02:31:49;;;;;;;1.65;1.55;;;9.70;99.90;;;;;;5092290;28;20624;-41
2021/05/27 02:34:17;;;;;;;2.25;1.50;;;9.70;99.90;;;;;;5092628;28;20297;-39
2021/05/27 02:36:45;;;;;;;3.30;2.03;;;9.70;99.90;;;;;;5092570;28;20249;-39
2021/05/27 02:39:13;;;;;;;3.22;1.70;;;9.70;99.90;;;;;;5092447;28;20253;-39
2021/05/27 02:41:40;;;;;;;1.73;1.45;;;9.70;99.90;;;;;;5092551;28;20214;-39
2021/05/27 02:44:08;;;;;;;2.40;1.70;;;9.70;99.90;;;;;;5092336;28;20736;-39
2021/05/27 02:46:36;;;;;;;2.10;1.55;;;9.70;99.90;;;;;;5092286;28;20240;-40
2021/05/27 02:49:05;;;;;;;2.15;1.77;;;9.70;99.90;;;;;;5092224;28;20253;-39
2021/05/27 02:51:33;;;;;;;1.88;1.70;;;9.70;99.90;;;;;;5092335;28;20577;-40
2021/05/27 02:54:00;;;;;;;2.35;1.45;;;9.60;99.90;;;;;;5092214;28;20297;-39
2021/05/27 02:56:28;;;;;;;2.17;1.70;;;9.60;99.90;;;;;;5092394;28;20207;-40
2021/05/27 02:58:55;;;;;;;3.63;1.60;;;9.60;99.90;;;;;;5092356;28;20213;-40
2021/05/27 03:01:23;;;;;;;2.15;1.40;;;9.60;99.90;;;;;;5092165;28;20203;-39
2021/05/27 03:03:50;;;;;;;2.35;1.48;;;9.60;99.90;;;;;;5092103;28;20253;-39
2021/05/27 03:06:19;;;;;;;1.85;1.48;;;9.50;99.90;;;;;;5092150;28;20294;-41
2021/05/27 03:08:46;;;;;;;1.88;1.40;;;9.50;99.90;;;;;;5091815;28;20626;-40
2021/05/27 03:11:14;;;;;;;2.05;1.48;;;9.50;99.90;;;;;;5092435;28;20571;-40
2021/05/27 03:13:41;;;;;;;4.72;2.42;;;9.50;99.90;;;;;;5092482;28;20210;-39
2021/05/27 03:16:09;;;;;;;3.60;2.47;;;9.50;99.90;;;;;;5092195;28;20245;-42
2021/05/27 03:18:36;;;;;;;12.43;8.40;;;9.50;99.90;;;;;;5091921;28;20211;-38
2021/05/27 03:21:04;;;;;;;7.35;6.00;;;9.50;99.90;;;;;;5091947;28;20541;-41
2021/05/27 03:23:33;;;;;;;4.15;3.85;;;9.50;99.90;;;;;;5092101;28;20246;-41
2021/05/27 03:26:01;;;;;;;4.18;3.78;;;9.50;99.90;;;;;;5092266;28;20206;-40
2021/05/27 03:28:28;;;;;;;6.35;3.40;;;9.50;99.90;;;;;;5092202;28;20302;-39
2021/05/27 03:30:56;;;;;;;3.20;2.90;;;9.50;99.90;;;;;;5091892;28;20227;-39
2021/05/27 03:33:24;;;;;;;4.50;2.90;;;9.60;99.90;;;;;;5091936;28;20613;-39
2021/05/27 03:35:51;;;;;;;3.40;2.90;;;9.50;99.90;;;;;;5091979;28;20245;-41
2021/05/27 03:38:19;;;;;;;4.15;3.03;;;9.60;99.90;;;;;;5092059;28;20206;-40
2021/05/27 03:40:47;;;;;;;4.13;2.72;;;9.50;99.90;;;;;;5091651;28;20650;-39
2021/05/27 03:43:15;;;;;;;4.20;2.85;;;9.50;99.90;;;;;;5091902;28;20245;-39
2021/05/27 03:45:43;;;;;;;4.13;2.58;;;9.50;99.90;;;;;;5091829;28;20289;-39
2021/05/27 03:48:12;;;;;;;3.42;2.78;;;9.50;99.90;;;;;;5091716;28;20454;-39
2021/05/27 03:50:40;;;;;;;4.35;2.42;;;9.50;99.90;;;;;;5091662;28;20222;-39
2021/05/27 03:53:09;;;;;;;4.97;3.20;;;9.50;99.90;;;;;;5091752;28;20641;-41
2021/05/27 03:55:37;;;;;;;7.68;3.72;;;9.60;99.90;;;;;;5091934;28;20688;-39
2021/05/27 04:00:41;;;;;;;5.82;3.30;;;9.60;99.90;;;;;;5091903;28;20296;-39
2021/05/27 04:00:53;;;;;;;4.70;2.88;;;9.70;99.90;;;;;;5091615;28;20294;-40
2021/05/27 04:03:22;;;;;;;8.00;3.92;;;9.70;99.90;;;;;;5091486;28;20301;-40
2021/05/27 04:08:35;;;;;;;5.53;3.40;;;9.80;99.90;;;;;;5091737;28;20559;-40
2021/05/27 04:11:02;;;;;;;6.95;5.25;;;9.80;99.90;;;;;;5091680;28;20309;-41
2021/05/27 04:13:32;;;;;;;5.22;3.88;;;9.80;99.90;;;;;;5092040;28;20203;-41
2021/05/27 04:15:59;;;;;;;3.90;2.97;;;9.80;99.90;;;;;;5091752;28;20301;-41
2021/05/27 04:18:27;;;;;;;5.70;3.45;;;9.80;99.90;;;;;;5091114;28;20293;-41
2021/05/27 04:20:55;;;;;;;3.47;3.17;;;9.80;99.90;;;;;;5092589;28;20203;-41
2021/05/27 04:23:33;;;;;;;5.20;4.03;;;9.80;99.90;;;;;;5094715;28;20210;-44
2021/05/27 04:26:01;;;;;;;4.38;3.83;;;9.80;99.90;;;;;;5095054;28;20207;-40
2021/05/27 04:28:30;;;;;;;5.80;3.78;;;9.80;99.90;;;;;;5095297;28;20286;-41
2021/05/27 04:31:09;;;;;;;5.03;3.63;;;9.80;99.90;;;;;;5094920;28;20266;-42
2021/05/27 04:33:37;;;;;;;5.68;3.45;;;9.80;99.90;;;;;;5095068;28;20237;-39
2021/05/27 04:36:05;;;;;;;3.58;2.97;;;9.80;99.90;;;;;;5094874;28;20210;-40
2021/05/27 04:38:33;;;;;;;9.23;4.10;;;9.80;99.90;;;;;;5095147;28;20293;-40
2021/05/27 04:41:01;;;;;;;3.65;2.90;;;9.90;99.90;;;;;;5094749;28;20209;-40
2021/05/27 04:43:28;;;;;;;4.70;3.53;;;9.80;99.90;;;;;;5094995;28;20629;-38
2021/05/27 04:45:56;;;;;;;4.18;3.08;;;9.80;99.90;;;;;;5094853;28;20612;-42
2021/05/27 04:48:24;;;;;;;5.65;3.70;;;9.80;99.90;;;;;;5094603;28;20286;-39
2021/05/27 04:50:53;;;;;;;3.10;2.72;;;9.90;99.90;;;;;;5094698;28;20237;-38
2021/05/27 04:53:21;;;;;;;5.35;3.22;;;9.90;99.90;;;;;;5094828;28;20369;-38
2021/05/27 04:55:49;;;;;;;6.95;3.78;;;9.80;99.90;;;;;;5094783;28;20294;-39
2021/05/27 04:58:17;;;;;;;4.95;3.20;;;9.80;99.90;;;;;;5094600;28;20634;-39
2021/05/27 05:00:44;;;;;;;6.18;4.07;;;9.80;99.90;;;;;;5094419;28;20234;-39
2021/05/27 05:03:12;;;;;;;3.75;3.10;;;9.70;99.90;;;;;;5094264;28;20297;-37
2021/05/27 05:05:41;;;;;;;8.23;3.35;;;9.80;99.90;;;;;;5094482;28;20298;-37
2021/05/27 05:08:08;;;;;;;6.00;4.25;;;9.80;99.90;;;;;;5094478;28;20213;-38
2021/05/27 05:10:36;;;;;;;5.00;2.80;;;9.80;99.90;;;;;;5094249;28;20248;-37
2021/05/27 05:13:05;;;;;;;3.17;2.85;;;9.90;99.90;;;;;;5094143;28;20669;-38
2021/05/27 05:15:34;;;;;;;3.22;2.42;;;9.90;99.90;;;;;;5094130;28;20306;-38
2021/05/27 05:18:03;;;;;;;5.15;3.45;;;9.80;99.90;;;;;;5094264;28;20298;-39
2021/05/27 05:20:33;;;;;;;5.25;3.20;;;9.80;99.90;;;;;;5093884;28;20231;-42
2021/05/27 05:23:02;;;;;;;4.93;3.60;;;9.80;99.90;;;;;;5093904;28;20213;-39
2021/05/27 05:25:31;;;;;;;3.78;2.78;;;9.80;99.90;;;;;;5093816;28;20598;-39
2021/05/27 05:27:59;;;;;;;4.97;3.00;;;9.80;99.90;;;;;;5093619;28;20253;-39
2021/05/27 05:30:27;;;;;;;2.33;2.03;;;9.80;99.90;;;;;;5093951;28;20318;-39
2021/05/27 05:32:55;;;;;;;3.00;2.63;;;9.80;99.90;;;;;;5092733;28;20234;-39
2021/05/27 05:35:24;;;;;;;3.78;2.85;;;9.80;99.90;;;;;;5093650;28;20665;-39
2021/05/27 05:37:52;;;;;;;3.22;2.92;;;9.90;99.90;;;;;;5093836;28;20298;-39
2021/05/27 05:40:22;;;;;;;3.20;2.67;;;9.90;99.90;;;;;;5093703;28;20649;-39
2021/05/27 05:42:51;;;;;;;3.67;2.15;;;10.00;99.90;;;;;;5093836;28;20226;-40
2021/05/27 05:45:20;;;;;;;3.92;2.40;;;10.10;99.90;;;;;;5093654;28;20246;-39
2021/05/27 05:47:48;;;;;;;3.38;2.20;;;10.10;99.90;;;;;;5093298;28;20638;-41
2021/05/27 05:50:44;;;;;;;2.08;1.95;;;10.10;99.90;;;;;;5093237;28;20317;-40
2021/05/27 05:53:06;;;;;;;2.42;1.98;;;10.30;99.90;;;;;;5093024;28;20301;-40
2021/05/27 05:55:35;;;;;;;2.45;1.90;;;10.40;99.90;;;;;;5093184;28;20306;-40
2021/05/27 05:58:02;;;;;;;2.28;2.00;;;10.50;99.90;;;;;;5093132;28;20220;-41
2021/05/27 06:00:30;;;;;;;2.20;2.00;;;10.50;99.90;;;;;;5093139;28;20294;-44
2021/05/27 06:02:57;;;;;;;1.80;1.70;;;10.50;99.90;;;;;;5093066;28;20251;-43
2021/05/27 06:05:25;;;;;;;1.60;1.50;;;10.50;99.90;;;;;;5092931;28;20297;-43
2021/05/27 06:07:53;;;;;;;1.70;1.60;;;10.50;99.90;;;;;;5092799;28;20627;-42
2021/05/27 06:10:20;;;;;;;2.33;2.13;;;10.50;99.90;;;;;;5093030;28;20258;-40
2021/05/27 06:12:49;;;;;;;2.95;1.73;;;10.60;99.90;;;;;;5092486;28;20256;-39
2021/05/27 06:15:21;;;;;;;3.85;2.10;;;10.60;99.90;;;;;;5092407;28;20290;-39
2021/05/27 06:17:56;;;;;;;2.17;1.70;;;10.70;99.90;;;;;;5092569;28;20251;-40
2021/05/27 06:20:24;;;;;;;1.55;1.45;;;10.70;99.90;;;;;;5092272;28;20270;-40
2021/05/27 06:22:52;;;;;;;3.55;2.10;;;10.70;99.90;;;;;;5092580;28;20253;-41
2021/05/27 06:25:21;;;;;;;2.92;2.10;;;10.80;99.90;;;;;;5092291;28;20286;-41
2021/05/27 06:27:51;;;;;;;2.90;1.60;;;10.80;99.90;;;;;;5092252;28;20253;-40
2021/05/27 06:30:20;;;;;;;4.15;1.80;;;10.80;99.90;;;;;;5092183;28;20223;-41
2021/05/27 06:32:47;;;;;;;4.95;1.98;;;10.80;99.90;;;;;;5091902;28;20210;-41
2021/05/27 06:35:15;;;;;;;2.25;1.88;;;10.90;99.90;;;;;;5092210;28;20238;-41
2021/05/27 06:37:43;;;;;;;5.00;1.80;;;10.90;99.90;;;;;;5092023;28;20260;-40
2021/05/27 06:40:12;;;;;;;3.58;2.33;;;11.00;99.90;;;;;;5091775;28;20206;-41
2021/05/27 06:42:40;;;;;;;2.40;2.20;;;11.00;99.90;;;;;;5092041;28;20310;-42
2021/05/27 06:45:10;;;;;;;2.20;2.00;;;11.10;99.90;;;;;;5091572;28;20301;-40
2021/05/27 06:47:37;;;;;;;3.70;2.17;;;11.10;99.90;;;;;;5092134;28;20221;-41
2021/05/27 06:50:12;;;;;;;2.78;2.15;;;11.00;99.90;;;;;;5092027;28;20595;-41
2021/05/27 06:52:39;;;;;;;2.85;2.08;;;10.90;99.90;;;;;;5092068;28;20207;-39
2021/05/27 06:55:09;;;;;;;2.28;2.08;;;11.00;99.90;;;;;;5091674;28;20297;-39
2021/05/27 06:57:37;;;;;;;3.15;2.85;;;11.00;99.90;;;;;;5091673;28;20207;-38
2021/05/27 07:00:07;;;;;;;2.60;2.40;;;11.00;99.90;;;;;;5092037;28;20203;-38
2021/05/27 07:02:35;;;;;;;2.10;1.90;;;11.10;99.90;;;;;;5091767;28;20661;-38
2021/05/27 07:05:03;;;;;;;4.35;2.25;;;11.10;99.90;;;;;;5091510;28;20203;-37
2021/05/27 07:07:30;;;;;;;2.15;2.05;;;11.20;99.90;;;;;;5091868;28;20222;-37
2021/05/27 07:09:58;;;;;;;4.45;1.88;;;11.30;99.90;;;;;;5091630;28;20210;-37
2021/05/27 07:12:25;;;;;;;2.55;2.35;;;11.40;99.90;;;;;;5091655;28;20301;-38
2021/05/27 07:14:53;;;;;;;2.25;2.08;;;11.50;99.90;;;;;;5091761;28;20225;-40
2021/05/27 07:17:20;;;;;;;2.53;2.30;;;11.60;99.90;;;;;;5091764;28;20207;-40
2021/05/27 07:19:51;;;;;;;3.38;2.30;;;11.80;99.90;;;;;;5091549;28;20246;-40
2021/05/27 07:22:19;;;;;;;2.20;1.60;;;11.90;99.90;;;;;;5091775;28;20237;-40
2021/05/27 07:24:47;;;;;;;1.95;1.77;;;12.00;99.90;;;;;;5091630;28;20259;-42
2021/05/27 07:27:14;;;;;;;2.65;1.75;;;12.00;99.90;;;;;;5091821;28;20250;-42
2021/05/27 07:29:43;;;;;;;2.78;1.70;;;12.00;99.90;;;;;;5091718;28;20568;-41
2021/05/27 07:32:10;;;;;;;2.10;1.88;;;12.00;99.90;;;;;;5091652;28;20230;-40
2021/05/27 07:34:38;;;;;;;1.85;1.50;;;11.90;99.90;;;;;;5091583;28;20312;-39
2021/05/27 07:37:06;;;;;;;1.67;1.55;;;11.90;99.90;;;;;;5091595;28;20392;-40
2021/05/27 07:39:34;;;;;;;4.93;2.03;;;11.80;99.90;;;;;;5091467;28;20227;-37
2021/05/27 07:42:04;;;;;;;1.98;1.70;;;11.80;99.90;;;;;;5091781;28;20246;-38
2021/05/27 07:44:31;;;;;;;1.77;1.67;;;11.70;99.90;;;;;;5091793;28;20293;-45
2021/05/27 07:46:59;;;;;;;1.67;1.58;;;11.60;99.90;;;;;;5091602;28;20241;-41
2021/05/27 07:49:27;;;;;;;2.30;1.77;;;11.50;99.90;;;;;;5091591;28;20215;-41
2021/05/27 07:51:54;;;;;;;1.55;1.40;;;11.60;99.90;;;;;;5091284;28;20313;-40
2021/05/27 07:54:23;;;;;;;6.85;3.08;;;11.60;99.90;;;;;;5091604;28;20234;-41
2021/05/27 07:56:51;;;;;;;2.72;2.03;;;11.60;99.90;;;;;;5094477;28;20715;-40
2021/05/27 07:59:19;;;;;;;2.85;2.00;;;11.60;99.90;;;;;;5095269;28;20302;-41
2021/05/27 08:01:46;;;;;;;3.35;1.80;;;11.60;99.90;;;;;;5095319;28;20740;-40
2021/05/27 08:04:14;;;;;;;2.13;1.60;;;11.60;99.90;;;;;;5095280;28;20305;-42
2021/05/27 08:06:42;;;;;;;1.80;1.70;;;11.60;99.90;;;;;;5095322;28;20260;-41
2021/05/27 08:09:11;;;;;;;2.13;1.75;;;11.50;99.90;;;;;;5095410;28;20210;-41
2021/05/27 08:11:41;;;;;;;3.67;2.85;;;11.50;99.90;;;;;;5095127;28;20250;-40
2021/05/27 08:14:08;;;;;;;2.28;1.50;;;11.60;99.90;;;;;;5095165;28;20301;-39
2021/05/27 08:16:36;;;;;;;2.13;1.60;;;11.80;99.90;;;;;;5095304;28;20207;-39
2021/05/27 08:19:05;;;;;;;3.45;1.90;;;11.90;99.90;;;;;;5094818;28;20273;-42
2021/05/27 08:21:33;;;;;;;1.80;1.70;;;12.10;99.90;;;;;;5095097;28;20248;-42
2021/05/27 08:24:01;;;;;;;3.95;1.35;;;12.30;99.90;;;;;;5094937;28;20669;-40
2021/05/27 08:26:31;;;;;;;2.60;1.70;;;12.40;99.90;;;;;;5095175;28;20242;-44
2021/05/27 08:28:59;;;;;;;2.13;1.50;;;12.40;99.90;;;;;;5095027;28;20210;-45
2021/05/27 08:31:30;;;;;;;1.45;1.35;;;12.40;99.90;;;;;;5094765;28;20227;-43
2021/05/27 08:33:58;;;;;;;3.55;1.20;;;12.40;99.90;;;;;;5094965;28;20306;-43
2021/05/27 08:36:25;;;;;;;4.15;2.40;;;12.50;99.90;;;;;;5094622;28;20206;-44
2021/05/27 08:38:53;;;;;;;2.63;2.42;;;12.50;99.90;;;;;;5094821;28;20250;-49
2021/05/27 08:41:20;;;;;;;2.70;1.65;;;12.60;99.90;;;;;;5094712;28;20203;-44
2021/05/27 08:43:48;;;;;;;2.47;1.45;;;12.80;99.90;;;;;;5094565;28;20207;-43
2021/05/27 08:46:17;;;;;;;4.40;1.42;;;13.10;99.90;;;;;;5094470;28;20215;-43
2021/05/27 08:48:45;;;;;;;2.38;1.88;;;13.20;99.90;;;;;;5094462;28;20214;-43
2021/05/27 08:51:12;;;;;;;2.80;2.20;;;13.40;99.90;;;;;;5094482;28;20701;-49
2021/05/27 08:53:40;;;;;;;3.47;1.30;;;13.50;99.90;;;;;;5094345;28;20256;-48
2021/05/27 08:56:12;;;;;;;2.03;1.83;;;13.40;99.90;;;;;;5094230;28;20298;-42
2021/05/27 08:58:40;;;;;;;1.30;1.20;;;13.20;99.90;;;;;;5094319;28;20327;-40
2021/05/27 09:01:08;;;;;;;1.70;1.60;;;13.00;99.90;;;;;;5094271;28;20232;-41
2021/05/27 09:03:41;;;;;;;1.50;1.25;;;12.80;99.90;;;;;;5094210;28;20297;-41
2021/05/27 09:06:10;;;;;;;3.42;1.60;;;12.70;99.90;;;;;;5093934;28;20727;-41
2021/05/27 09:08:39;;;;;;;1.80;1.40;;;12.70;99.90;;;;;;5094220;28;20630;-42
2021/05/27 09:11:07;;;;;;;1.27;1.05;;;12.80;99.90;;;;;;5094234;28;20223;-41
2021/05/27 09:13:36;;;;;;;1.70;1.60;;;12.90;99.90;;;;;;5094244;28;20213;-39
2021/05/27 09:16:09;;;;;;;1.40;1.30;;;13.00;99.90;;;;;;5094171;28;20210;-42
2021/05/27 09:18:38;;;;;;;2.33;1.55;;;13.00;99.90;;;;;;5093788;28;20203;-40
2021/05/27 09:21:08;;;;;;;3.08;1.42;;;13.10;99.90;;;;;;5094006;28;20213;-41
2021/05/27 09:23:37;;;;;;;2.50;1.40;;;13.20;99.90;;;;;;5093928;28;20676;-41
2021/05/27 09:26:07;;;;;;;2.30;1.35;;;13.50;99.90;;;;;;5094042;28;20207;-41
2021/05/27 09:28:38;;;;;;;1.98;1.67;;;13.60;99.90;;;;;;5094021;28;20293;-45
2021/05/27 09:31:08;;;;;;;1.52;1.42;;;13.70;99.90;;;;;;5093777;28;20677;-41
2021/05/27 09:33:36;;;;;;;1.95;1.27;;;13.70;99.90;;;;;;5093476;28;20234;-43
2021/05/27 09:36:07;;;;;;;3.90;2.00;;;13.80;99.90;;;;;;5093473;28;20375;-41
2021/05/27 09:38:36;;;;;;;1.88;1.52;;;13.80;99.90;;;;;;5093536;28;20221;-42
2021/05/27 09:41:18;;;;;;;2.05;1.58;;;14.00;99.90;;;;;;5093799;28;20206;-40
2021/05/27 09:43:48;;;;;;;5.35;2.00;;;14.20;99.90;;;;;;5093418;28;20246;-41
2021/05/27 09:46:17;;;;;;;2.00;1.23;;;14.30;99.90;;;;;;5093379;28;20255;-41
2021/05/27 09:48:45;;;;;;;1.20;1.20;;;14.40;99.90;;;;;;5093215;28;20596;-40
2021/05/27 09:51:25;;;;;;;1.75;1.65;;;14.60;99.90;;;;;;5093221;28;20313;-40
2021/05/27 09:53:53;;;;;;;2.55;1.23;;;14.80;99.90;;;;;;5093297;28;20207;-40
2021/05/27 09:56:32;;;;;;;1.50;1.15;;;15.10;99.20;;;;;;5093330;28;20289;-41
2021/05/27 09:59:05;;;;;;;1.92;1.38;;;15.20;99.00;;;;;;5093158;28;20586;-40
2021/05/27 10:01:35;;;;;;;1.48;1.38;;;15.20;98.80;;;;;;5093434;28;20234;-42
2021/05/27 10:04:11;;;;;;;1.55;1.08;;;15.10;98.70;;;;;;5093292;28;20210;-41
2021/05/27 10:06:40;;;;;;;1.80;1.10;;;15.00;98.40;;;;;;5093168;28;20306;-41
2021/05/27 10:09:09;;;;;;;3.85;1.58;;;15.00;98.40;;;;;;5092745;28;20203;-41
2021/05/27 10:11:38;;;;;;;3.42;1.67;;;14.90;98.20;;;;;;5092844;28;20241;-43
2021/05/27 10:14:07;;;;;;;2.70;1.45;;;14.90;98.30;;;;;;5092836;28;20646;-44
2021/05/27 10:16:36;;;;;;;3.72;1.55;;;14.90;98.40;;;;;;5092888;28;20268;-42
2021/05/27 10:19:04;;;;;;;3.60;1.85;;;15.00;98.30;;;;;;5092105;28;20333;-40
2021/05/27 10:21:32;;;;;;;5.35;1.63;;;15.00;98.00;;;;;;5092883;28;20235;-40
2021/05/27 10:24:01;;;;;;;1.90;1.60;;;15.00;97.80;;;;;;5092399;28;20691;-41
2021/05/27 10:26:29;;;;;;;2.83;1.67;;;14.90;97.60;;;;;;5092798;28;20212;-40
2021/05/27 10:29:20;;;;;;;1.38;1.13;;;15.00;97.40;;;;;;5092395;28;20211;-38
2021/05/27 10:31:48;;;;;;;1.70;1.30;;;14.90;97.10;;;;;;5092610;28;20237;-40
2021/05/27 10:34:41;;;;;;;1.30;1.00;;;14.90;96.80;;;;;;5092502;28;20239;-38
2021/05/27 10:37:09;;;;;;;1.23;1.13;;;14.90;96.40;;;;;;5092453;28;20305;-39
2021/05/27 10:39:40;;;;;;;2.35;1.63;;;15.00;96.40;;;;;;5092530;28;20646;-42
2021/05/27 10:42:08;;;;;;;1.42;1.33;;;15.00;96.30;;;;;;5092595;28;20277;-40
2021/05/27 10:45:08;;;;;;;1.83;1.40;;;15.00;96.50;;;;;;5092483;28;20206;-40
2021/05/27 10:47:35;;;;;;;1.75;1.20;;;15.30;95.90;;;;;;5092548;28;20707;-40
2021/05/27 10:50:05;;;;;;;2.15;1.30;;;15.50;95.70;;;;;;5092590;28;20202;-40
2021/05/27 10:52:41;;;;;;;2.50;1.08;;;15.60;95.50;;;;;;5092539;28;20310;-40
2021/05/27 10:55:41;;;;;;;3.00;0.82;;;15.70;94.40;;;;;;5092403;28;20245;-39
2021/05/27 10:58:09;;;;;;;1.45;1.20;;;15.90;93.80;;;;;;5092165;28;20285;-40
2021/05/27 11:00:58;;;;;;;2.67;1.20;;;15.90;94.20;;;;;;5092369;28;20331;-41
2021/05/27 11:03:42;;;;;;;1.20;1.10;;;15.80;93.70;;;;;;5086442;28;20637;-43
2021/05/27 11:06:21;;;;;;;2.47;1.10;;;15.70;93.80;;;;;;5092457;28;20309;-40
2021/05/27 11:09:09;;;;;;;2.85;1.30;;;15.70;94.00;;;;;;5092640;28;20206;-41
2021/05/27 11:11:38;;;;;;;1.30;1.17;;;15.60;93.90;;;;;;5092096;28;20227;-39
2021/05/27 11:14:17;;;;;;;1.88;1.65;;;15.60;94.10;;;;;;5092244;28;20213;-39
2021/05/27 11:17:25;;;;;;;2.13;1.30;;;15.80;93.10;;;;;;5092150;28;20635;-40
2021/05/27 11:19:55;;;;;;;2.42;1.02;;;16.00;92.40;;;;;;5009864;28;20237;-40
2021/05/27 11:22:47;;;;;;;2.28;1.20;;;16.20;92.80;;;;;;5076493;28;20289;-40
2021/05/27 11:25:34;;;;;;;1.20;1.10;;;16.30;92.20;;;;;;5091963;28;20309;-40
2021/05/27 11:28:25;;;;;;;2.30;1.20;;;16.60;91.90;;;;;;5091861;28;20223;-42
2021/05/27 11:30:57;;;;;;;1.33;1.00;;;16.80;91.40;;;;;;5092750;28;20751;-41
2021/05/27 11:33:34;;;;;;;1.42;1.33;;;16.80;91.50;;;;;;5095616;28;20317;-41
2021/05/27 11:36:06;;;;;;;1.17;1.10;;;16.90;90.80;;;;;;5095603;28;20206;-40
2021/05/27 11:38:34;;;;;;;1.20;0.98;;;16.80;90.60;;;;;;5095934;28;20333;-40
2021/05/27 11:41:05;;;;;;;1.35;1.15;;;16.90;90.80;;;;;;5095523;28;20207;-40
2021/05/27 11:43:35;;;;;;;1.15;1.05;;;16.80;90.70;;;;;;5095686;28;20202;-40
2021/05/27 11:46:06;;;;;;;1.75;1.52;;;16.60;90.60;;;;;;5095440;28;20751;-38
2021/05/27 11:48:38;;;;;;;2.28;1.15;;;16.40;90.90;;;;;;5095570;28;20222;-38
2021/05/27 11:51:10;;;;;;;1.60;0.85;;;16.50;91.20;;;;;;5095416;28;20207;-40
2021/05/27 11:53:49;;;;;;;1.45;1.17;;;16.60;90.50;;;;;;5095321;28;20704;-39
2021/05/27 11:56:42;;;;;;;0.98;0.98;;;16.50;90.10;;;;;;5095390;28;20234;-42
2021/05/27 11:59:12;;;;;;;2.13;1.42;;;16.50;89.10;;;;;;5095379;28;20257;-41
2021/05/27 12:01:42;;;;;;;1.42;1.00;;;16.60;90.00;;;;;;5095154;28;20293;-42
2021/05/27 12:04:14;;;;;;;3.20;1.10;;;16.80;89.50;;;;;;5094988;28;20202;-39
2021/05/27 12:06:56;;;;;;;1.73;1.13;;;17.10;88.60;;;;;;5095212;28;20246;-41
2021/05/27 12:09:35;;;;;;;1.00;0.90;;;17.20;87.70;;;;;;5094535;28;20285;-40
2021/05/27 12:12:20;;;;;;;2.25;1.23;;;17.10;88.10;;;;;;5095068;28;20619;-40
2021/05/27 12:14:53;;;;;;;1.33;0.90;;;17.00;89.10;;;;;;5094650;28;20297;-39
2021/05/27 12:17:24;;;;;;;1.20;1.10;;;17.10;88.60;;;;;;5094955;28;20206;-39
2021/05/27 12:19:54;;;;;;;1.13;1.02;;;17.30;87.40;;;;;;5094844;28;20234;-39
2021/05/27 12:22:22;;;;;;;2.40;0.98;;;17.40;86.20;;;;;;5094887;28;20336;-39
2021/05/27 12:25:08;;;;;;;1.63;1.20;;;17.50;86.20;;;;;;5094716;28;20726;-40
2021/05/27 12:27:44;;;;;;;3.13;1.10;;;17.50;85.40;;;;;;5094785;28;20665;-42
2021/05/27 12:30:17;;;;;;;1.10;1.00;;;17.60;86.80;;;;;;5094764;28;20302;-42
2021/05/27 12:32:46;;;;;;;1.52;1.00;;;17.70;86.30;;;;;;5094593;28;20269;-40
2021/05/27 12:35:17;;;;;;;1.75;1.20;;;17.70;85.50;;;;;;5094613;28;20293;-41
2021/05/27 12:37:48;;;;;;;1.50;0.98;;;17.80;85.00;;;;;;5094842;28;20540;-40
2021/05/27 12:40:25;;;;;;;1.00;0.90;;;17.90;85.10;;;;;;5094845;28;20217;-39
2021/05/27 12:42:57;;;;;;;1.25;1.15;;;18.00;84.80;;;;;;5093806;28;20684;-40
2021/05/27 12:45:35;;;;;;;2.25;0.90;;;18.10;84.30;;;;;;5094364;28;20211;-39
2021/05/27 12:48:11;;;;;;;2.85;1.20;;;18.00;84.00;;;;;;5094455;28;20250;-40
2021/05/27 12:50:42;;;;;;;1.27;1.13;;;18.00;83.60;;;;;;5094481;28;20240;-40
2021/05/27 12:53:27;;;;;;;1.77;1.17;;;18.10;83.00;;;;;;5094353;28;20313;-40
2021/05/27 12:55:56;;;;;;;1.25;1.02;;;18.40;81.50;;;;;;5094312;28;20290;-39
2021/05/27 12:58:31;;;;;;;1.48;1.00;;;18.70;81.50;;;;;;5094423;28;20301;-43
2021/05/27 13:01:01;;;;;;;1.23;1.00;;;19.10;80.70;;;;;;5094266;28;20310;-40
2021/05/27 13:03:30;;;;;;;3.33;1.30;;;19.20;79.00;;;;;;5093747;28;20298;-40
2021/05/27 13:06:08;;;;;;;1.38;1.17;;;19.10;79.10;;;;;;5093693;28;20259;-39
2021/05/27 13:08:37;;;;;;;2.03;1.73;;;19.10;77.40;;;;;;5093580;28;20221;-40
2021/05/27 13:11:22;;;;;;;1.80;1.30;;;19.00;78.70;;;;;;5094128;28;20242;-41